METAR Data

Data at: 0626 UTC 28 Sep 2022

METAR for:KGHG (Marshfield Muni, MA, US)
Text:KGHG 280615Z AUTO 23004KT 10SM CLR 12/09 A2993 RMK AO2
Temperature: 12.0°C ( 54°F)
Dewpoint: 9.0°C ( 48°F) [RH = 82%]
Pressure (altimeter):29.93 inches Hg (1013.6 mb)
Winds:from the SW (230 degrees) at 5 MPH (4 knots; 2.1 m/s)
Visibility:10 or more sm (16+ km)
Ceiling:at least 12,000 feet AGL
Clouds:sky clear below 12,000 feet AGL
QC Flag:automated observation with no human augmentation